Sao Sebastiao, Brazil
Current Conditions -  °F | °C
As of 8:00 AM on Sunday 28 Dec 2014 (Local Time) from SBMO Reporting Station
Broken Clouds Broken Clouds  
Wind Chill: 79°   Ceiling: 2000
Heat Index: 81°   Visibility: 6mi
Dew Point: 68°   Wind: 5mph
Humidity: 69%   Direction: 200°SSW
Pressure: 30"   Gusts: NA
Location:  9.93°S, 36.55°W
Report Text: SBMO 281100Z 20004KT 9999 BKN020 26/20 Q1016
Loading
Personal Weather Stations






























Interactive Weather Map New forecast layout! Learn more

10-Day Weather Forecast

Advertisements
Track Severe Weather on mobile